Time;durP1;ratioP1;P1;durP2;ratioP2;P2;SDS_P1;SDS_P2;PMS_P1;PMS_P2;Temp;Humidity;BMP_temperature;BMP_pressure;BME280_temperature;BME280_humidity;BME280_pressure;Samples;Min_cycle;Max_cycle;Signal;HPM_P1;HPM_P2
2022/01/29 00:00:14;;;;;;;16.17;9.43;;;;;;;4.02;100.00;102252.28;690667;28;1906;-53
2022/01/29 00:00:34;;;;;;;14.90;9.38;;;;;;;4.01;100.00;102257.41;687051;28;3419;-55
2022/01/29 00:00:55;;;;;;;16.45;9.13;;;;;;;3.99;100.00;102262.50;688551;28;1809;-55
2022/01/29 00:01:15;;;;;;;16.07;8.90;;;;;;;3.99;100.00;102257.34;689448;28;4315;-57
2022/01/29 00:01:35;;;;;;;15.95;9.10;;;;;;;4.00;100.00;102253.03;688092;28;1306;-56
2022/01/29 00:01:56;;;;;;;16.37;9.37;;;;;;;4.00;100.00;102259.13;686748;28;804;-56
2022/01/29 00:02:19;;;;;;;15.68;9.05;;;;;;;3.98;100.00;102258.13;687093;28;1351;-57
2022/01/29 00:02:40;;;;;;;16.50;9.20;;;;;;;3.97;100.00;102266.72;688343;28;959;-56
2022/01/29 00:03:01;;;;;;;17.90;9.30;;;;;;;3.97;100.00;102265.84;689213;28;1016;-55
2022/01/29 00:03:25;;;;;;;17.60;9.60;;;;;;;3.95;100.00;102263.19;690107;28;3983;-57
2022/01/29 00:03:46;;;;;;;14.88;9.02;;;;;;;3.95;100.00;102258.00;693932;28;1185;-57
2022/01/29 00:04:11;;;;;;;15.67;9.10;;;;;;;3.96;100.00;102261.47;689943;28;4337;-58
2022/01/29 00:04:31;;;;;;;16.23;8.90;;;;;;;3.94;100.00;102263.09;689616;28;2267;-55
2022/01/29 00:04:51;;;;;;;15.20;9.03;;;;;;;3.94;100.00;102263.09;692575;28;1483;-57
2022/01/29 00:05:12;;;;;;;15.17;8.90;;;;;;;3.93;100.00;102262.19;688700;28;1536;-57
2022/01/29 00:05:32;;;;;;;14.63;9.20;;;;;;;3.92;100.00;102269.09;689152;28;1597;-56
2022/01/29 00:05:53;;;;;;;14.87;9.07;;;;;;;3.92;100.00;102263.03;687397;28;2367;-55
2022/01/29 00:06:14;;;;;;;15.93;9.07;;;;;;;3.91;100.00;102261.25;690742;28;1852;-55
2022/01/29 00:06:34;;;;;;;15.75;8.82;;;;;;;3.91;100.00;102258.66;690976;28;2360;-58
2022/01/29 00:06:55;;;;;;;15.63;8.90;;;;;;;3.90;100.00;102264.66;691944;28;1407;-55
2022/01/29 00:07:15;;;;;;;17.27;9.57;;;;;;;3.89;100.00;102261.19;691939;28;4284;-56
2022/01/29 00:07:41;;;;;;;16.77;9.38;;;;;;;3.89;100.00;102262.88;692592;28;1177;-54
2022/01/29 00:08:02;;;;;;;16.67;9.27;;;;;;;3.92;100.00;102263.03;691340;28;1433;-54
2022/01/29 00:08:23;;;;;;;14.95;8.95;;;;;;;3.91;100.00;102258.66;691353;28;1143;-54
2022/01/29 00:08:43;;;;;;;17.00;9.33;;;;;;;3.91;100.00;102261.25;693028;28;1124;-56
2022/01/29 00:09:07;;;;;;;14.73;8.90;;;;;;;4.04;100.00;102262.72;694061;28;3220;-53
2022/01/29 00:09:28;;;;;;;16.48;9.25;;;;;;;4.03;100.00;102254.06;691936;28;1703;-54
2022/01/29 00:09:48;;;;;;;15.13;9.07;;;;;;;4.03;100.00;102264.44;691479;28;1407;-56
2022/01/29 00:10:12;;;;;;;16.00;9.30;;;;;;;4.02;100.00;102262.66;691912;28;4685;-54
2022/01/29 00:10:33;;;;;;;16.08;9.32;;;;;;;4.03;100.00;102254.06;688968;28;1600;-56
2022/01/29 00:10:59;;;;;;;15.90;9.23;;;;;;;4.03;100.00;102266.09;689564;28;1244;-52
2022/01/29 00:11:27;;;;;;;16.30;9.35;;;;;;;4.01;100.00;102262.56;688622;28;1543;-57
2022/01/29 00:11:47;;;;;;;16.08;9.02;;;;;;;4.01;100.00;102263.44;691835;28;4055;-55
2022/01/29 00:12:08;;;;;;;15.67;8.90;;;;;;;4.00;100.00;102259.13;691146;28;3342;-56
2022/01/29 00:12:29;;;;;;;15.55;9.20;;;;;;;3.99;100.00;102262.50;691050;28;1438;-56
2022/01/29 00:12:49;;;;;;;16.17;8.80;;;;;;;4.06;100.00;102267.16;692509;28;1318;-53
2022/01/29 00:13:10;;;;;;;16.05;9.02;;;;;;;4.07;100.00;102261.19;690983;28;4428;-56
2022/01/29 00:13:30;;;;;;;15.10;8.60;;;;;;;4.05;100.00;102265.38;689367;28;1771;-56
2022/01/29 00:13:50;;;;;;;15.48;9.02;;;;;;;4.06;100.00;102255.94;689637;28;1500;-55
2022/01/29 00:14:11;;;;;;;14.53;8.90;;;;;;;4.05;100.00;102267.09;689338;28;1018;-55
2022/01/29 00:14:31;;;;;;;16.23;9.37;;;;;;;4.03;100.00;102256.66;690014;28;832;-53
2022/01/29 00:14:52;;;;;;;16.27;9.00;;;;;;;4.01;100.00;102260.00;689203;28;4287;-57
2022/01/29 00:15:12;;;;;;;15.43;8.97;;;;;;;4.00;100.00;102264.28;691847;28;3981;-55
2022/01/29 00:15:32;;;;;;;15.75;9.27;;;;;;;3.98;100.00;102263.31;692265;28;1945;-57
2022/01/29 00:15:53;;;;;;;15.57;9.17;;;;;;;3.98;100.00;102262.44;692835;28;1749;-57
2022/01/29 00:16:13;;;;;;;15.52;9.13;;;;;;;3.96;100.00;102262.38;692024;28;4335;-56
2022/01/29 00:16:34;;;;;;;17.13;9.50;;;;;;;3.96;100.00;102262.38;693184;28;1426;-60
2022/01/29 00:16:54;;;;;;;16.92;9.75;;;;;;;3.95;100.00;102258.00;693115;28;1238;-53
2022/01/29 00:17:15;;;;;;;16.57;9.57;;;;;;;3.95;100.00;102260.59;692821;28;1580;-55
2022/01/29 00:17:35;;;;;;;16.50;9.13;;;;;;;3.95;100.00;102260.59;692057;28;3894;-57
2022/01/29 00:17:55;;;;;;;16.13;8.70;;;;;;;3.95;100.00;102265.75;692516;28;4273;-55
2022/01/29 00:18:16;;;;;;;15.85;9.23;;;;;;;3.94;100.00;102261.38;692431;28;1432;-54
2022/01/29 00:18:36;;;;;;;14.87;9.47;;;;;;;3.95;100.00;102259.72;689783;28;1565;-54
2022/01/29 00:18:59;;;;;;;15.85;9.45;;;;;;;3.93;100.00;102259.59;688588;28;1631;-53
2022/01/29 00:19:20;;;;;;;16.33;9.32;;;;;;;3.93;100.00;102264.78;691628;28;4276;-55
2022/01/29 00:19:41;;;;;;;15.48;9.48;;;;;;;3.92;100.00;102265.63;693133;28;1088;-54
2022/01/29 00:20:03;;;;;;;15.75;9.52;;;;;;;3.92;100.00;102256.16;691848;28;1370;-52
2022/01/29 00:20:23;;;;;;;15.60;9.60;;;;;;;3.91;100.00;102261.25;692619;28;1914;-56
2022/01/29 00:20:43;;;;;;;16.27;9.40;;;;;;;3.92;100.00;102263.03;692263;28;2681;-56
2022/01/29 00:21:04;;;;;;;13.80;9.17;;;;;;;3.91;100.00;102259.53;695017;28;1273;-57
2022/01/29 00:21:24;;;;;;;14.05;9.50;;;;;;;3.92;100.00;102260.44;695165;28;1409;-54
2022/01/29 00:21:45;;;;;;;15.17;9.60;;;;;;;3.91;100.00;102258.66;695510;28;1218;-56
2022/01/29 00:22:06;;;;;;;15.93;9.68;;;;;;;3.91;100.00;102259.53;693479;28;4381;-56
2022/01/29 00:22:26;;;;;;;16.13;9.38;;;;;;;3.91;100.00;102259.53;696142;28;1273;-57
2022/01/29 00:22:46;;;;;;;17.70;9.50;;;;;;;3.91;100.00;102254.38;694539;28;1302;-54
2022/01/29 00:23:07;;;;;;;15.35;9.25;;;;;;;3.91;100.00;102259.53;694696;28;1865;-56
2022/01/29 00:23:27;;;;;;;16.80;9.30;;;;;;;3.95;100.00;102252.81;693968;28;3494;-53
2022/01/29 00:23:47;;;;;;;16.73;10.00;;;;;;;4.15;100.00;102245.97;694850;28;1441;-54
2022/01/29 00:24:08;;;;;;;16.73;10.10;;;;;;;4.16;100.00;102247.78;694727;28;1510;-56
2022/01/29 00:24:29;;;;;;;14.90;9.05;;;;;;;4.13;100.00;102247.63;695546;28;1480;-56
2022/01/29 00:24:50;;;;;;;15.38;9.05;;;;;;;4.11;100.00;102251.84;694662;28;1512;-57
2022/01/29 00:25:10;;;;;;;16.48;9.32;;;;;;;4.09;100.00;102251.75;691316;28;4306;-55
2022/01/29 00:25:30;;;;;;;17.50;9.60;;;;;;;4.13;100.00;102245.03;692532;28;1516;-52
2022/01/29 00:25:51;;;;;;;16.80;9.30;;;;;;;4.17;100.00;102241.78;692317;28;1440;-57
2022/01/29 00:26:11;;;;;;;16.00;9.50;;;;;;;4.15;100.00;102243.41;692939;28;2308;-57
2022/01/29 00:26:32;;;;;;;16.42;9.20;;;;;;;4.12;100.00;102240.69;693572;28;1489;-56
2022/01/29 00:26:53;;;;;;;16.00;9.80;;;;;;;4.11;100.00;102244.06;693478;28;1285;-53
2022/01/29 00:27:14;;;;;;;18.23;10.07;;;;;;;4.07;100.00;102240.47;695193;28;1295;-57
2022/01/29 00:27:36;;;;;;;16.88;9.82;;;;;;;4.07;100.00;102239.56;695719;28;1115;-57
2022/01/29 00:27:59;;;;;;;15.32;9.95;;;;;;;4.06;100.00;102228.34;694289;28;1261;-56
2022/01/29 00:28:20;;;;;;;17.33;9.68;;;;;;;4.05;100.00;102239.50;692113;28;4367;-57
2022/01/29 00:28:40;;;;;;;15.20;9.57;;;;;;;4.05;100.00;102236.03;692589;28;1134;-58
2022/01/29 00:29:08;;;;;;;13.98;9.10;;;;;;;4.04;100.00;102229.97;690969;28;3603;-57
2022/01/29 00:29:29;;;;;;;16.17;9.57;;;;;;;4.01;100.00;102227.22;691773;28;1594;-58
2022/01/29 00:29:50;;;;;;;17.38;9.65;;;;;;;4.02;100.00;102226.41;692007;28;1441;-57
2022/01/29 00:30:16;;;;;;;16.55;9.63;;;;;;;4.01;100.00;102226.34;691905;28;1481;-54
2022/01/29 00:30:40;;;;;;;15.93;9.40;;;;;;;4.00;100.00;102228.06;691884;28;1306;-56
2022/01/29 00:31:02;;;;;;;16.48;9.30;;;;;;;3.99;100.00;102228.88;691203;28;1239;-57
2022/01/29 00:31:23;;;;;;;13.85;8.77;;;;;;;3.99;100.00;102221.09;689195;28;4975;-55
2022/01/29 00:31:43;;;;;;;15.07;9.27;;;;;;;3.98;100.00;102214.16;689221;28;3505;-56
2022/01/29 00:32:09;;;;;;;16.48;9.57;;;;;;;4.03;100.00;102219.53;688061;28;3903;-55
2022/01/29 00:32:29;;;;;;;14.43;9.38;;;;;;;4.07;100.00;102224.94;688710;28;1340;-56
2022/01/29 00:32:49;;;;;;;14.90;9.30;;;;;;;4.04;100.00;102214.44;689579;28;1258;-57
2022/01/29 00:33:11;;;;;;;15.10;9.40;;;;;;;4.03;100.00;102217.84;690001;28;1441;-56
2022/01/29 00:33:32;;;;;;;16.38;9.43;;;;;;;4.03;100.00;102211.75;692029;28;1341;-56
2022/01/29 00:33:52;;;;;;;17.00;9.90;;;;;;;4.01;100.00;102213.41;689192;28;1334;-57
2022/01/29 00:34:13;;;;;;;15.53;9.50;;;;;;;4.00;100.00;102215.13;689774;28;4465;-55
2022/01/29 00:34:33;;;;;;;17.10;10.17;;;;;;;3.99;100.00;102215.03;691533;28;2116;-54
2022/01/29 00:34:54;;;;;;;15.73;9.80;;;;;;;3.99;100.00;102213.34;691506;28;3752;-55
2022/01/29 00:35:14;;;;;;;16.67;9.63;;;;;;;3.99;100.00;102210.75;685655;28;1187;-57
2022/01/29 00:35:35;;;;;;;16.83;9.43;;;;;;;3.97;100.00;102212.38;687263;28;1231;-56
2022/01/29 00:35:55;;;;;;;17.45;9.55;;;;;;;3.97;100.00;102211.50;689861;28;1124;-58
2022/01/29 00:36:16;;;;;;;17.07;10.13;;;;;;;3.97;100.00;102212.38;689527;28;1076;-58
2022/01/29 00:36:36;;;;;;;16.92;9.93;;;;;;;4.11;100.00;102207.84;689549;28;1207;-56
2022/01/29 00:36:56;;;;;;;18.43;10.03;;;;;;;4.13;100.00;102208.81;689608;28;1291;-56
2022/01/29 00:37:17;;;;;;;16.88;9.77;;;;;;;4.12;100.00;102214.78;691502;28;4845;-53
2022/01/29 00:37:37;;;;;;;17.97;9.43;;;;;;;4.23;100.00;102210.13;692291;28;3688;-57
2022/01/29 00:37:57;;;;;;;16.92;9.45;;;;;;;4.23;100.00;102212.72;691724;28;1452;-57
2022/01/29 00:38:18;;;;;;;16.73;9.73;;;;;;;4.18;100.00;102209.91;689413;28;1631;-56
2022/01/29 00:38:38;;;;;;;16.77;9.87;;;;;;;4.18;100.00;102222.84;687130;28;1235;-55
2022/01/29 00:38:58;;;;;;;16.60;9.77;;;;;;;4.15;100.00;102208.88;689599;28;1235;-57
2022/01/29 00:39:19;;;;;;;15.60;9.70;;;;;;;4.14;100.00;102220.03;689420;28;3908;-57
2022/01/29 00:39:39;;;;;;;17.92;10.10;;;;;;;4.12;100.00;102221.69;689616;28;1298;-57
2022/01/29 00:40:00;;;;;;;16.50;9.67;;;;;;;4.11;100.00;102212.13;686610;28;1290;-56
2022/01/29 00:40:21;;;;;;;17.23;9.80;;;;;;;4.09;100.00;102212.94;683850;28;4440;-55
2022/01/29 00:40:44;;;;;;;17.17;10.48;;;;;;;4.08;100.00;102211.19;687120;28;1517;-56
2022/01/29 00:41:05;;;;;;;16.17;9.68;;;;;;;4.05;100.00;102211.03;685667;28;1316;-57
2022/01/29 00:41:25;;;;;;;16.02;9.30;;;;;;;4.05;100.00;102226.56;686402;28;1189;-55
2022/01/29 00:41:46;;;;;;;17.90;9.80;;;;;;;4.04;100.00;102210.97;687417;28;1402;-56
2022/01/29 00:42:06;;;;;;;17.13;9.60;;;;;;;4.04;100.00;102210.97;690139;28;1360;-55
2022/01/29 00:42:27;;;;;;;15.65;9.32;;;;;;;4.04;100.00;102221.31;689642;28;1252;-53
2022/01/29 00:42:48;;;;;;;16.03;9.57;;;;;;;4.05;100.00;102221.38;689330;28;1434;-56
2022/01/29 00:43:08;;;;;;;17.42;10.32;;;;;;;4.04;100.00;102217.03;688759;28;4284;-56
2022/01/29 00:43:29;;;;;;;15.97;10.00;;;;;;;4.06;100.00;102215.41;692023;28;1242;-55
2022/01/29 00:43:49;;;;;;;16.02;9.50;;;;;;;4.06;100.00;102212.81;692025;28;1067;-54
2022/01/29 00:44:10;;;;;;;17.43;10.00;;;;;;;4.05;100.00;102216.19;692469;28;1044;-53
2022/01/29 00:44:30;;;;;;;15.68;9.85;;;;;;;4.04;100.00;102219.63;692428;28;1059;-56
2022/01/29 00:44:51;;;;;;;16.47;10.17;;;;;;;4.04;100.00;102216.13;692447;28;876;-57
2022/01/29 00:45:11;;;;;;;17.75;10.30;;;;;;;4.03;100.00;102219.53;691958;28;1033;-55
2022/01/29 00:45:33;;;;;;;16.55;9.90;;;;;;;4.03;100.00;102215.25;692500;28;797;-56
2022/01/29 00:45:54;;;;;;;16.05;9.65;;;;;;;4.01;100.00;102222.03;689585;28;3281;-58
2022/01/29 00:46:14;;;;;;;16.70;10.20;;;;;;;4.02;100.00;102218.66;688008;28;4749;-58
2022/01/29 00:46:40;;;;;;;18.07;10.37;;;;;;;4.02;100.00;102215.19;686805;28;1115;-56
2022/01/29 00:47:00;;;;;;;18.58;9.85;;;;;;;4.02;100.00;102213.47;686018;28;1495;-55
2022/01/29 00:47:21;;;;;;;17.93;9.60;;;;;;;4.05;100.00;102225.69;687378;28;908;-57
2022/01/29 00:47:44;;;;;;;17.25;10.13;;;;;;;4.07;100.00;102229.22;688202;28;809;-53
2022/01/29 00:48:05;;;;;;;17.90;9.80;;;;;;;4.06;100.00;102223.16;691234;28;1912;-56
2022/01/29 00:48:25;;;;;;;16.83;10.10;;;;;;;4.06;100.00;102219.69;693042;28;1121;-56
2022/01/29 00:48:45;;;;;;;18.10;10.83;;;;;;;4.05;100.00;102215.31;693025;28;3897;-53
2022/01/29 00:49:06;;;;;;;17.93;10.33;;;;;;;4.03;100.00;102217.84;691476;28;4393;-57
2022/01/29 00:49:26;;;;;;;17.47;10.17;;;;;;;4.04;100.00;102218.72;693770;28;3640;-57
2022/01/29 00:49:47;;;;;;;16.03;9.97;;;;;;;4.04;100.00;102213.53;695582;28;962;-56
2022/01/29 00:50:11;;;;;;;16.60;9.90;;;;;;;4.03;100.00;102217.84;692271;28;1272;-57
2022/01/29 00:50:31;;;;;;;17.23;10.27;;;;;;;4.01;100.00;102216.88;690180;28;1304;-55
2022/01/29 00:50:52;;;;;;;18.07;10.60;;;;;;;4.01;100.00;102219.47;689277;28;988;-56
2022/01/29 00:51:12;;;;;;;18.60;10.77;;;;;;;4.02;100.00;102220.38;689132;28;955;-57
2022/01/29 00:51:33;;;;;;;18.38;9.98;;;;;;;4.01;100.00;102216.88;689843;28;3383;-54
2022/01/29 00:51:53;;;;;;;16.70;10.00;;;;;;;4.03;100.00;102211.75;689205;28;4531;-55
2022/01/29 00:52:13;;;;;;;18.10;10.63;;;;;;;4.03;100.00;102220.44;689596;28;4537;-55
2022/01/29 00:52:34;;;;;;;17.30;10.53;;;;;;;4.04;100.00;102216.13;692382;28;987;-56
2022/01/29 00:52:54;;;;;;;17.75;10.52;;;;;;;4.03;100.00;102220.44;692664;28;1227;-54
2022/01/29 00:53:20;;;;;;;18.05;10.60;;;;;;;4.03;100.00;102212.66;690088;28;1931;-57
2022/01/29 00:53:41;;;;;;;18.83;11.30;;;;;;;4.05;100.00;102210.16;690823;28;1402;-52
2022/01/29 00:54:02;;;;;;;19.58;10.80;;;;;;;4.04;100.00;102214.44;691859;28;1487;-53
2022/01/29 00:54:22;;;;;;;18.67;10.70;;;;;;;4.04;100.00;102214.44;691427;28;3326;-52
2022/01/29 00:54:45;;;;;;;17.93;10.83;;;;;;;4.20;100.00;102215.16;692039;28;4283;-54
2022/01/29 00:55:07;;;;;;;17.30;10.63;;;;;;;4.25;100.00;102217.16;692547;28;4362;-53
2022/01/29 00:55:28;;;;;;;17.50;10.63;;;;;;;4.28;100.00;102210.31;690910;28;1724;-54
2022/01/29 00:55:48;;;;;;;17.90;10.85;;;;;;;4.30;100.00;102211.28;692320;28;896;-54
2022/01/29 00:56:10;;;;;;;16.60;10.47;;;;;;;4.47;100.00;102212.91;692178;28;1171;-61
2022/01/29 00:56:30;;;;;;;19.73;10.80;;;;;;;4.69;100.00;102214.75;690076;28;1652;-52
2022/01/29 00:56:51;;;;;;;21.00;12.10;;;;;;;4.66;100.00;102208.59;689904;28;1427;-54
2022/01/29 00:57:11;;;;;;;21.83;12.15;;;;;;;4.62;100.00;102217.91;689489;28;3823;-51
2022/01/29 00:57:33;;;;;;;22.73;11.90;;;;;;;4.57;100.00;102214.25;691298;28;3816;-53
2022/01/29 00:57:53;;;;;;;20.05;11.50;;;;;;;4.52;100.00;102211.44;691903;28;1112;-54
2022/01/29 00:58:14;;;;;;;22.40;12.20;;;;;;;4.50;100.00;102214.78;688535;28;4427;-53
2022/01/29 00:58:34;;;;;;;20.30;11.93;;;;;;;4.46;100.00;102210.25;689542;28;1152;-56
2022/01/29 00:58:55;;;;;;;19.50;11.90;;;;;;;4.41;100.00;102210.06;690136;28;1159;-52
2022/01/29 00:59:15;;;;;;;18.17;12.00;;;;;;;4.38;100.00;102216.00;689170;28;1237;-52
2022/01/29 00:59:35;;;;;;;18.70;11.93;;;;;;;4.35;100.00;102221.03;689529;28;1267;-52
2022/01/29 00:59:56;;;;;;;20.02;12.10;;;;;;;4.33;100.00;102214.88;689762;28;1314;-55
2022/01/29 01:00:17;;;;;;;19.40;12.00;;;;;;;4.32;100.00;102218.31;690587;28;3623;-53
2022/01/29 01:00:37;;;;;;;19.40;12.07;;;;;;;4.31;100.00;102216.53;691807;28;1380;-53
2022/01/29 01:00:58;;;;;;;19.35;11.93;;;;;;;4.30;100.00;102216.47;691778;28;1229;-61
2022/01/29 01:01:18;;;;;;;18.83;11.55;;;;;;;4.38;100.00;102213.41;693547;28;4525;-55
2022/01/29 01:01:39;;;;;;;22.03;12.00;;;;;;;4.45;100.00;102221.47;695257;28;1035;-55
2022/01/29 01:02:02;;;;;;;21.67;12.40;;;;;;;4.42;100.00;102220.50;694621;28;1421;-52
2022/01/29 01:02:22;;;;;;;21.05;12.50;;;;;;;4.43;100.00;102211.00;691662;28;1534;-52
2022/01/29 01:02:43;;;;;;;20.43;12.37;;;;;;;4.40;100.00;102213.47;691746;28;1418;-54
2022/01/29 01:03:03;;;;;;;21.38;12.23;;;;;;;4.38;100.00;102215.13;691482;28;3572;-53
2022/01/29 01:03:24;;;;;;;20.50;11.93;;;;;;;4.35;100.00;102220.16;689311;28;1564;-52
2022/01/29 01:03:44;;;;;;;19.85;12.30;;;;;;;4.33;100.00;102207.13;690042;28;1211;-53
2022/01/29 01:04:07;;;;;;;19.53;12.37;;;;;;;4.34;100.00;102208.91;689775;28;4435;-52
2022/01/29 01:05:04;;;;;;;19.95;12.23;;;;;;;4.38;100.00;102213.41;688265;28;1521;-53
2022/01/29 01:05:15;;;;;;;20.58;12.32;;;;;;;4.32;100.00;102205.38;688345;28;2069;-55
2022/01/29 01:05:47;;;;;;;20.90;12.38;;;;;;;4.31;100.00;102208.75;691907;28;1010;-55
2022/01/29 01:06:10;;;;;;;22.08;12.75;;;;;;;4.30;100.00;102211.28;691743;28;1432;-52
2022/01/29 01:06:38;;;;;;;21.20;12.53;;;;;;;4.41;100.00;102208.34;696279;28;1571;-57
2022/01/29 01:07:01;;;;;;;20.60;12.95;;;;;;;4.39;100.00;102202.22;696803;28;1068;-53
2022/01/29 01:07:31;;;;;;;20.83;12.40;;;;;;;4.44;100.00;102205.03;695042;28;4479;-52
2022/01/29 01:07:51;;;;;;;20.63;13.00;;;;;;;4.42;100.00;102207.53;692443;28;1221;-54
2022/01/29 01:08:12;;;;;;;21.10;12.47;;;;;;;4.41;100.00;102202.31;691612;28;1171;-57
2022/01/29 01:08:39;;;;;;;21.77;13.35;;;;;;;4.37;100.00;102197.81;692716;28;4148;-55
2022/01/29 01:08:59;;;;;;;20.45;13.05;;;;;;;4.39;100.00;102202.22;687420;28;1335;-56
2022/01/29 01:09:32;;;;;;;21.90;13.07;;;;;;;4.46;100.00;102198.22;687944;28;1082;-55
2022/01/29 01:09:56;;;;;;;21.15;12.63;;;;;;;4.45;100.00;102205.94;684596;28;1437;-55
2022/01/29 01:10:23;;;;;;;23.20;12.32;;;;;;;4.57;100.00;102203.91;686782;28;4332;-54
2022/01/29 01:10:43;;;;;;;22.13;13.73;;;;;;;4.54;100.00;102203.72;686615;28;1868;-52
2022/01/29 01:11:07;;;;;;;23.17;13.93;;;;;;;4.50;100.00;102201.81;687670;28;1485;-53
2022/01/29 01:11:31;;;;;;;20.88;13.13;;;;;;;4.46;100.00;102194.72;690719;28;880;-55
2022/01/29 01:11:54;;;;;;;21.20;13.15;;;;;;;4.48;100.00;102203.47;688089;28;3410;-53
2022/01/29 01:12:19;;;;;;;21.27;12.95;;;;;;;4.48;100.00;102190.53;686936;28;1122;-52
2022/01/29 01:12:41;;;;;;;23.55;13.52;;;;;;;4.50;100.00;102194.03;685622;28;2412;-51
2022/01/29 01:13:02;;;;;;;23.63;13.63;;;;;;;4.51;100.00;102198.41;687649;28;1355;-57
2022/01/29 01:13:24;;;;;;;23.25;13.60;;;;;;;4.49;100.00;102200.06;679755;29;4420;-56
2022/01/29 01:13:44;;;;;;;22.58;13.57;;;;;;;4.47;100.00;102193.91;683388;28;1629;-54
2022/01/29 01:14:08;;;;;;;22.27;13.85;;;;;;;4.44;100.00;102194.66;684337;28;3167;-53
2022/01/29 01:14:28;;;;;;;25.03;14.10;;;;;;;4.45;100.00;102195.56;686879;28;4024;-54
2022/01/29 01:14:52;;;;;;;22.42;13.40;;;;;;;4.48;100.00;102196.56;690230;28;1079;-56
2022/01/29 01:15:13;;;;;;;23.17;13.75;;;;;;;4.48;100.00;102199.16;690397;28;1362;-55
2022/01/29 01:15:38;;;;;;;22.83;13.77;;;;;;;4.46;100.00;102194.72;688094;28;1794;-56
2022/01/29 01:16:00;;;;;;;25.38;14.20;;;;;;;4.52;100.00;102197.63;687801;28;1275;-52
2022/01/29 01:16:33;;;;;;;23.02;14.38;;;;;;;4.62;100.00;102193.72;686796;28;4367;-55
2022/01/29 01:16:56;;;;;;;22.40;14.57;;;;;;;4.58;100.00;102190.09;685824;28;2631;-54
2022/01/29 01:17:18;;;;;;;22.33;14.30;;;;;;;4.54;100.00;102183.91;686413;28;2875;-55
2022/01/29 01:17:39;;;;;;;22.13;13.90;;;;;;;4.51;100.00;102186.34;689263;28;3566;-56
2022/01/29 01:18:03;;;;;;;22.52;13.93;;;;;;;4.49;100.00;102182.81;692359;28;1636;-55
2022/01/29 01:18:24;;;;;;;23.50;14.10;;;;;;;4.48;100.00;102185.34;690337;28;1068;-55
2022/01/29 01:18:44;;;;;;;22.83;14.50;;;;;;;4.46;100.00;102181.78;690650;28;1493;-54
2022/01/29 01:19:05;;;;;;;23.00;14.65;;;;;;;4.45;100.00;102180.03;689232;28;4487;-57
2022/01/29 01:19:26;;;;;;;23.53;14.63;;;;;;;4.45;100.00;102180.91;690173;28;1025;-55
2022/01/29 01:19:48;;;;;;;22.42;13.80;;;;;;;4.44;100.00;102179.13;691296;28;3248;-56
2022/01/29 01:20:08;;;;;;;21.33;14.45;;;;;;;4.44;100.00;102173.94;689503;28;1697;-55
2022/01/29 01:20:29;;;;;;;22.53;14.33;;;;;;;4.58;100.00;102175.47;691258;28;3983;-52
2022/01/29 01:20:49;;;;;;;23.02;14.38;;;;;;;4.56;100.00;102174.50;689541;28;1388;-53
2022/01/29 01:21:10;;;;;;;24.35;14.82;;;;;;;4.54;100.00;102170.06;687057;28;1415;-56
2022/01/29 01:21:30;;;;;;;24.57;14.30;;;;;;;4.72;100.00;102170.88;687849;28;1049;-54
2022/01/29 01:21:51;;;;;;;25.30;14.00;;;;;;;4.88;100.00;102169.81;687603;28;1049;-51
2022/01/29 01:22:14;;;;;;;22.40;14.13;;;;;;;4.84;100.00;102178.28;688326;28;4569;-53
2022/01/29 01:22:35;;;;;;;24.92;14.82;;;;;;;4.78;100.00;102165.94;687388;28;1388;-56
2022/01/29 01:22:55;;;;;;;25.47;14.67;;;;;;;4.75;100.00;102170.13;689362;28;4067;-54
2022/01/29 01:23:15;;;;;;;22.42;13.93;;;;;;;4.71;100.00;102165.63;691606;28;1726;-53
2022/01/29 01:23:36;;;;;;;22.13;13.87;;;;;;;4.73;100.00;102177.81;691339;28;1433;-54
2022/01/29 01:23:57;;;;;;;25.20;14.52;;;;;;;4.69;100.00;102170.72;689642;28;1088;-54
2022/01/29 01:24:17;;;;;;;23.85;14.73;;;;;;;4.77;100.00;102166.75;690044;28;1236;-55
2022/01/29 01:24:39;;;;;;;24.53;14.90;;;;;;;4.79;100.00;102166.84;692801;28;1214;-56
2022/01/29 01:24:59;;;;;;;23.42;14.82;;;;;;;4.76;100.00;102169.28;690993;28;1045;-56
2022/01/29 01:25:20;;;;;;;22.93;14.33;;;;;;;4.72;100.00;102160.53;690832;28;4423;-55
2022/01/29 01:25:41;;;;;;;23.50;14.03;;;;;;;4.69;100.00;102170.72;691769;28;3815;-54
2022/01/29 01:26:02;;;;;;;23.00;13.95;;;;;;;4.67;100.00;102171.50;694278;28;1677;-53
2022/01/29 01:26:23;;;;;;;24.15;14.20;;;;;;;4.70;100.00;102162.16;692730;28;1895;-55
2022/01/29 01:26:44;;;;;;;24.75;14.48;;;;;;;4.67;100.00;102169.78;690963;28;1864;-55
2022/01/29 01:27:05;;;;;;;24.77;14.48;;;;;;;4.65;100.00;102162.75;691815;28;1358;-55
2022/01/29 01:27:25;;;;;;;23.23;14.63;;;;;;;4.78;100.00;102165.94;692913;28;1952;-55
2022/01/29 01:27:47;;;;;;;24.52;14.82;;;;;;;4.80;100.00;102162.56;693668;28;1608;-57
2022/01/29 01:28:08;;;;;;;23.75;14.23;;;;;;;4.75;100.00;102163.25;693053;28;4390;-53
2022/01/29 01:28:29;;;;;;;24.27;15.07;;;;;;;4.73;100.00;102164.84;695557;28;2132;-53
2022/01/29 01:28:49;;;;;;;22.50;14.77;;;;;;;4.72;100.00;102165.69;695117;28;1161;-56
2022/01/29 01:29:09;;;;;;;22.73;14.87;;;;;;;4.77;100.00;102166.75;694067;28;1794;-53
2022/01/29 01:29:30;;;;;;;23.08;14.35;;;;;;;4.86;100.00;102157.63;689889;28;1246;-56
2022/01/29 01:29:50;;;;;;;23.03;14.20;;;;;;;4.90;100.00;102154.34;689581;28;1016;-56
2022/01/29 01:30:11;;;;;;;25.40;14.67;;;;;;;4.83;100.00;102158.41;686231;28;2209;-57
2022/01/29 01:30:32;;;;;;;23.88;14.70;;;;;;;4.85;100.00;102161.06;687226;28;940;-57
2022/01/29 01:30:53;;;;;;;23.58;14.35;;;;;;;4.84;100.00;102162.72;683829;28;1391;-57
2022/01/29 01:31:14;;;;;;;24.40;14.70;;;;;;;4.79;100.00;102164.28;684239;28;4607;-57
2022/01/29 01:31:34;;;;;;;25.67;14.80;;;;;;;4.76;100.00;102161.53;688622;28;4142;-55
2022/01/29 01:31:55;;;;;;;24.20;14.25;;;;;;;4.72;100.00;102157.03;686764;28;1759;-56
2022/01/29 01:32:15;;;;;;;23.80;14.23;;;;;;;4.70;100.00;102162.16;689170;28;1054;-56
2022/01/29 01:32:36;;;;;;;23.15;14.73;;;;;;;4.68;100.00;102156.03;689756;28;1131;-56
2022/01/29 01:32:57;;;;;;;24.30;14.52;;;;;;;4.70;100.00;102158.69;692009;28;1225;-53
2022/01/29 01:33:17;;;;;;;23.73;14.63;;;;;;;4.68;100.00;102153.44;689109;28;1515;-54
2022/01/29 01:33:38;;;;;;;22.53;14.43;;;;;;;4.68;100.00;102161.22;689991;28;1068;-57
2022/01/29 01:33:58;;;;;;;23.67;14.35;;;;;;;4.65;100.00;102157.59;690304;28;3246;-56
2022/01/29 01:34:21;;;;;;;25.07;14.20;;;;;;;4.70;100.00;102159.56;690586;28;4340;-56
2022/01/29 01:34:49;;;;;;;25.33;14.77;;;;;;;4.66;100.00;102165.41;691060;28;1793;-57
2022/01/29 01:35:18;;;;;;;24.95;14.50;;;;;;;4.69;100.00;102159.50;693910;28;1457;-56
2022/01/29 01:35:45;;;;;;;22.90;14.23;;;;;;;4.70;100.00;102163.84;695130;28;1111;-55
2022/01/29 01:36:07;;;;;;;24.10;14.52;;;;;;;4.68;100.00;102158.63;692141;28;1452;-54
2022/01/29 01:36:27;;;;;;;24.50;14.75;;;;;;;4.70;100.00;102166.44;692140;28;1235;-58
2022/01/29 01:36:54;;;;;;;26.67;15.07;;;;;;;4.66;100.00;102164.53;691970;28;3182;-56
2022/01/29 01:37:34;;;;;;;25.40;14.92;;;;;;;4.65;100.00;102158.47;689713;28;5257;-55
2022/01/29 01:38:39;;;;;;;26.25;15.07;;;;;;;4.63;100.00;102165.28;694848;28;1075;-54
2022/01/29 01:39:05;;;;;;;24.13;14.30;;;;;;;4.71;100.00;102163.94;692903;28;1414;-57
2022/01/29 01:39:30;;;;;;;25.70;14.38;;;;;;;4.86;100.00;102162.78;693837;28;3667;-56
2022/01/29 01:39:50;;;;;;;24.73;14.18;;;;;;;4.93;100.00;102157.94;694030;28;4351;-56
2022/01/29 01:40:11;;;;;;;24.30;14.75;;;;;;;4.88;100.00;102156.00;693902;28;4402;-56
2022/01/29 01:40:32;;;;;;;22.58;13.95;;;;;;;4.83;100.00;102154.91;694444;28;1918;-56
2022/01/29 01:40:58;;;;;;;23.27;14.17;;;;;;;4.81;100.00;102159.16;691900;28;1710;-54
2022/01/29 01:41:24;;;;;;;26.50;14.60;;;;;;;4.90;100.00;102154.34;691813;28;1413;-55
2022/01/29 01:41:54;;;;;;;24.33;14.48;;;;;;;4.99;100.00;102152.13;689580;28;1227;-55
2022/01/29 01:42:14;;;;;;;23.77;14.07;;;;;;;4.91;100.00;102149.22;689014;28;1289;-56